Aérodrome :
LOGIN :

S'inscrire | Disclaimer

   EN    FR    IT 

 










Légende :    VFR   VFR Marginal   IFR   IFR Intensif   IFR Très Intensif
Visi : 
Plafond : 
>= 8 km
>= 3000ft
5 à 8 km
1000 à 3000 ft
1500m à 5 km
500 à 1000 ft
800 à 1500m
200 à 500 ft
< 800m
< 200 ft
Symboles :   Orages  Brouillard  Fortes neiges  Fortes précipitations  Vent > 20 kt
SIGMETs :   Divers  Orages  Givrage  Turbulence  Onde Orograph.  Cendres Volcan.







- Altitude de l'aérodrome : 257 ft
- Code IATA : MAN
- Voir les cartes d'approche


EGCC - Manchester

DERNIER METAR :
  • 192220Z AUTO 18004KT 9999 FEW038 10/08 Q1019 NOSIG

METARs EXPIRÉS :
  • 192150Z AUTO 18004KT 9999 BKN045 11/09 Q1019 NOSIG
  • 192120Z AUTO 18004KT 9999 BKN043 10/09 Q1020 NOSIG
  • 192050Z AUTO VRB03KT 9999 BKN044 10/08 Q1020
  • 192020Z AUTO 16004KT 9999 BKN043 11/09 Q1020 NOSIG
  • 191950Z AUTO 14003KT 9999 FEW047 10/08 Q1020 NOSIG
  • 191920Z AUTO 14003KT 9999 NCD 11/09 Q1020 NOSIG

TAF TAF EGCC
Valide du 19 à 18h jusqu'au 21 à 00h UTC


191657Z 1918/2024 VRB03KT 9999 FEW035
BECMG 2005/2008 17010KT
PROB30
TEMPO 2006/2011 BKN014
PROB30
TEMPO 2016/2018 9000 -RA
TEMPO 2018/2024 7000 RA BKN010
ATIS : +44 161 499 2324
Pas de NOTAMs connus pour ce terrain.



MET'MAP, la Météo Aéronautique d'un coup d'oeil ! - Copyright ORBIFLY Décembre 2007 - Disclaimer

ORBIFLY MET'MAP TEAM :

Programmation & Développement : Alexandra Zaïnal
Conception & Développement : Baudouin d'Aumeries
Co-Programmation & Développement : Marc-Olivier Méhu
Soutien technique & logistique : Manuel Goepfert

Contact : metmap@orbifly.com




SOURCES & CREDITS :

   NOAA